Terminal Aerodrome Forecast
Issued by NWS

Home | Current Version | Previous Version | Text Only | Print | Product List | Glossary On
Versions: 1 2 3 4 5 6 7 8 9 10 11 12 13 14 15 16 17
000
FTUS43 KPAH 022320
TAFCGI
TAF
KCGI 022320Z 0300/0324 19001KT P6SM SKC
      TEMPO 0308/0312 00000KT 4SM BR MIFG
     FM031500 19001KT P6SM SCT070=

USA.gov is the U.S. government's official web portal to all federal, state and local government web resources and services.